createdAt,value
2023-04-09T00:00:02.820Z,4.22
2023-04-09T00:02:43.162Z,3.72
2023-04-09T00:05:14.469Z,4.70
2023-04-09T00:07:44.828Z,4.50
2023-04-09T00:10:15.654Z,4.50
2023-04-09T00:12:47.464Z,3.97
2023-04-09T00:15:27.959Z,11.55
2023-04-09T00:18:01.814Z,19.20
2023-04-09T00:20:32.600Z,11.57
2023-04-09T00:23:03.834Z,9.00
2023-04-09T00:25:34.324Z,6.43
2023-04-09T00:28:05.376Z,9.77
2023-04-09T00:30:38.760Z,10.57
2023-04-09T00:33:08.869Z,5.68
2023-04-09T00:35:39.135Z,9.52
2023-04-09T00:38:10.449Z,7.05
2023-04-09T00:40:43.701Z,10.57
2023-04-09T00:43:14.277Z,9.73
2023-04-09T00:45:49.608Z,6.60
2023-04-09T00:48:23.151Z,4.85
2023-04-09T00:50:55.314Z,6.63
2023-04-09T00:53:26.740Z,5.50
2023-04-09T00:55:58.431Z,3.92
2023-04-09T00:58:29.725Z,4.65
2023-04-09T01:00:59.800Z,4.50
2023-04-09T01:03:33.297Z,3.53
2023-04-09T01:08:53.420Z,3.30
2023-04-09T01:11:46.701Z,1.80
2023-04-09T01:14:40.962Z,1.48
2023-04-09T01:17:27.708Z,2.00
2023-04-09T01:20:11.094Z,2.35
2023-04-09T01:23:08.261Z,2.67
2023-04-09T01:25:59.990Z,4.03
2023-04-09T01:28:41.000Z,2.38
2023-04-09T01:31:58.114Z,2.70
2023-04-09T01:34:38.514Z,1.80
2023-04-09T01:37:15.945Z,1.58
2023-04-09T01:39:48.171Z,1.10
2023-04-09T01:42:22.488Z,1.20
2023-04-09T01:44:55.330Z,1.23
2023-04-09T01:47:35.502Z,1.05
2023-04-09T01:50:14.414Z,1.40
2023-04-09T01:52:47.518Z,0.88
2023-04-09T01:55:17.778Z,0.85
2023-04-09T01:57:49.201Z,0.82
2023-04-09T02:00:23.001Z,0.75
2023-04-09T02:03:16.579Z,0.85
2023-04-09T02:06:34.814Z,1.40
2023-04-09T02:09:10.233Z,0.80
2023-04-09T02:14:18.841Z,1.08
2023-04-09T02:17:07.493Z,2.70
2023-04-09T02:19:50.345Z,2.72
2023-04-09T02:22:23.856Z,3.60
2023-04-09T02:25:01.866Z,4.28
2023-04-09T02:27:34.879Z,4.18
2023-04-09T02:30:06.296Z,3.58
2023-04-09T02:32:52.287Z,2.38
2023-04-09T02:38:16.784Z,1.00
2023-04-09T02:40:50.004Z,1.05
2023-04-09T02:43:22.219Z,0.50
2023-04-09T02:45:52.534Z,0.50
2023-04-09T02:48:26.996Z,0.60
2023-04-09T02:50:58.081Z,0.50
2023-04-09T02:53:29.868Z,0.85
2023-04-09T02:56:05.999Z,0.70
2023-04-09T02:58:41.338Z,0.60
2023-04-09T03:01:14.424Z,0.40
2023-04-09T03:06:31.238Z,0.47
2023-04-09T03:09:01.680Z,0.40
2023-04-09T03:11:31.780Z,0.70
2023-04-09T03:14:01.976Z,0.60
2023-04-09T03:16:35.904Z,0.88
2023-04-09T03:19:09.115Z,0.63
2023-04-09T03:21:43.185Z,0.50
2023-04-09T03:24:14.224Z,0.40
2023-04-09T03:26:50.025Z,0.47
2023-04-09T03:29:21.073Z,0.40
2023-04-09T03:31:51.049Z,0.50
2023-04-09T03:34:25.092Z,0.52
2023-04-09T03:37:00.246Z,0.40
2023-04-09T03:39:36.059Z,0.50
2023-04-09T03:42:16.480Z,0.60
2023-04-09T03:44:50.134Z,0.90
2023-04-09T03:47:27.978Z,1.40
2023-04-09T03:50:00.000Z,1.90
2023-04-09T03:52:37.530Z,1.85
2023-04-09T03:55:15.198Z,1.33
2023-04-09T03:57:52.465Z,2.15
2023-04-09T04:03:31.573Z,8.50
2023-04-09T04:06:24.761Z,9.07
2023-04-09T04:09:11.106Z,7.78
2023-04-09T04:12:06.085Z,8.30
2023-04-09T04:15:06.333Z,9.07
2023-04-09T04:17:47.594Z,8.48
2023-04-09T04:20:28.050Z,8.63
2023-04-09T04:23:09.500Z,7.72
2023-04-09T04:25:55.280Z,8.95
2023-04-09T04:28:35.826Z,8.15
2023-04-09T04:31:14.984Z,8.23
2023-04-09T04:33:47.242Z,6.68
2023-04-09T04:36:24.972Z,9.32
2023-04-09T04:38:56.979Z,6.30
2023-04-09T04:41:48.554Z,6.00
2023-04-09T04:47:06.553Z,6.80
2023-04-09T04:49:41.838Z,6.82
2023-04-09T04:52:17.985Z,8.75
2023-04-09T04:54:59.647Z,6.35
2023-04-09T04:57:31.203Z,4.68
2023-04-09T05:02:42.003Z,1.85
2023-04-09T05:05:26.289Z,1.45
2023-04-09T05:08:06.060Z,1.40
2023-04-09T05:10:45.093Z,1.38
2023-04-09T05:13:16.505Z,1.10
2023-04-09T05:15:50.515Z,1.45
2023-04-09T05:18:22.175Z,1.20
2023-04-09T05:20:52.486Z,1.58
2023-04-09T05:23:23.987Z,1.50
2023-04-09T05:25:55.034Z,1.67
2023-04-09T05:28:35.287Z,1.50
2023-04-09T05:31:16.932Z,1.52
2023-04-09T05:33:55.424Z,1.48
2023-04-09T05:36:35.812Z,1.30
2023-04-09T05:39:06.799Z,1.58
2023-04-09T05:41:39.396Z,1.50
2023-04-09T05:44:29.849Z,1.48
2023-04-09T05:47:17.768Z,1.10
2023-04-09T05:50:26.287Z,1.52
2023-04-09T05:52:59.998Z,1.42
2023-04-09T05:55:37.702Z,1.38
2023-04-09T05:58:08.531Z,1.40
2023-04-09T06:00:39.870Z,1.30
2023-04-09T06:03:12.436Z,1.55
2023-04-09T06:05:43.532Z,1.65
2023-04-09T06:08:20.996Z,1.05
2023-04-09T06:11:18.549Z,1.05
2023-04-09T06:13:48.990Z,0.90
2023-04-09T06:16:19.748Z,1.10
2023-04-09T06:18:53.211Z,1.10
2023-04-09T06:21:23.833Z,0.77
2023-04-09T06:24:00.628Z,0.70
2023-04-09T06:26:31.029Z,1.00
2023-04-09T06:29:00.998Z,0.90
2023-04-09T06:31:41.752Z,0.90
2023-04-09T06:34:17.641Z,0.80
2023-04-09T06:36:50.940Z,0.77
2023-04-09T06:39:21.884Z,0.82
2023-04-09T06:41:51.789Z,0.60
2023-04-09T06:44:39.884Z,0.70
2023-04-09T06:47:10.528Z,1.00
2023-04-09T06:49:40.564Z,1.00
2023-04-09T06:52:11.765Z,0.77
2023-04-09T06:54:42.592Z,0.80
2023-04-09T06:57:13.448Z,0.80
2023-04-09T06:59:44.216Z,0.85
2023-04-09T07:02:14.485Z,0.93
2023-04-09T07:04:45.401Z,0.80
2023-04-09T07:07:17.081Z,0.90
2023-04-09T07:09:48.029Z,0.93
2023-04-09T07:12:32.149Z,1.05
2023-04-09T07:15:05.202Z,1.50
2023-04-09T07:17:37.650Z,1.30
2023-04-09T07:20:08.290Z,1.35
2023-04-09T07:22:38.389Z,1.65
2023-04-09T07:25:09.333Z,1.80
2023-04-09T07:27:40.378Z,2.00
2023-04-09T07:30:12.260Z,1.92
2023-04-09T07:32:42.621Z,1.52
2023-04-09T07:35:12.847Z,1.98
2023-04-09T07:37:43.276Z,2.15
2023-04-09T07:40:13.591Z,2.10
2023-04-09T07:42:45.432Z,2.85
2023-04-09T07:45:16.382Z,2.80
2023-04-09T07:47:47.751Z,3.10
2023-04-09T07:50:18.094Z,3.17
2023-04-09T07:52:48.720Z,3.50
2023-04-09T07:55:19.199Z,3.30
2023-04-09T07:57:49.787Z,3.40
2023-04-09T08:00:22.681Z,3.60
2023-04-09T08:02:53.682Z,4.13
2023-04-09T08:05:24.952Z,3.83
2023-04-09T08:07:55.160Z,3.90
2023-04-09T08:10:25.172Z,3.58
2023-04-09T08:12:55.555Z,4.43
2023-04-09T08:15:25.633Z,4.43
2023-04-09T08:17:56.578Z,4.75
2023-04-09T08:20:28.440Z,4.43
2023-04-09T08:22:59.037Z,4.85
2023-04-09T08:25:29.457Z,4.97
2023-04-09T08:28:00.460Z,5.40
2023-04-09T08:30:32.052Z,5.47
2023-04-09T08:33:04.382Z,5.53
2023-04-09T08:35:35.116Z,5.95
2023-04-09T08:38:06.094Z,5.85
2023-04-09T08:40:40.564Z,5.70
2023-04-09T08:43:15.393Z,6.10
2023-04-09T08:45:47.220Z,6.70
2023-04-09T08:48:18.623Z,5.57
2023-04-09T08:50:49.800Z,6.13
2023-04-09T08:53:21.682Z,5.63
2023-04-09T08:55:52.851Z,6.63
2023-04-09T08:58:23.018Z,5.45
2023-04-09T09:00:53.048Z,6.18
2023-04-09T09:03:23.461Z,6.32
2023-04-09T09:05:53.785Z,6.10
2023-04-09T09:08:28.273Z,5.65
2023-04-09T09:10:58.852Z,5.75
2023-04-09T09:13:29.909Z,5.72
2023-04-09T09:16:19.106Z,5.60
2023-04-09T09:18:50.215Z,6.40
2023-04-09T09:21:22.096Z,6.00
2023-04-09T09:23:52.564Z,5.85
2023-04-09T09:26:42.174Z,5.90
2023-04-09T09:29:12.718Z,5.82
2023-04-09T09:31:53.981Z,6.28
2023-04-09T09:34:28.093Z,6.60
2023-04-09T09:36:59.044Z,6.03
2023-04-09T09:39:48.154Z,6.03
2023-04-09T09:42:19.734Z,6.38
2023-04-09T09:44:51.244Z,6.47
2023-04-09T09:47:22.304Z,6.05
2023-04-09T09:49:54.156Z,6.28
2023-04-09T09:52:32.786Z,6.10
2023-04-09T09:55:06.779Z,6.22
2023-04-09T09:57:43.988Z,5.97
2023-04-09T10:00:18.644Z,6.70
2023-04-09T10:03:00.061Z,6.80
2023-04-09T10:05:32.345Z,6.13
2023-04-09T10:08:03.498Z,6.57
2023-04-09T10:10:36.340Z,6.47
2023-04-09T10:13:11.585Z,6.15
2023-04-09T10:15:44.612Z,6.30
2023-04-09T10:18:15.225Z,5.97
2023-04-09T10:21:22.719Z,6.32
2023-04-09T10:23:53.872Z,6.25
2023-04-09T10:26:32.216Z,6.50
2023-04-09T10:29:18.397Z,5.90
2023-04-09T10:32:06.571Z,4.80
2023-04-09T10:34:42.032Z,4.93
2023-04-09T10:37:26.542Z,4.45
2023-04-09T10:39:58.566Z,4.43
2023-04-09T10:42:35.371Z,3.95
2023-04-09T10:45:11.118Z,3.53
2023-04-09T10:50:24.020Z,3.53
2023-04-09T10:55:47.032Z,3.50
2023-04-09T10:58:18.106Z,3.38
2023-04-09T11:00:53.918Z,3.22
2023-04-09T11:03:35.350Z,3.17
2023-04-09T11:06:11.379Z,3.40
2023-04-09T11:08:43.713Z,3.75
2023-04-09T11:11:15.384Z,3.70
2023-04-09T11:13:46.543Z,3.42
2023-04-09T11:16:24.667Z,3.58
2023-04-09T11:19:00.510Z,3.60
2023-04-09T11:21:31.987Z,3.70
2023-04-09T11:24:03.128Z,3.65
2023-04-09T11:26:40.060Z,3.97
2023-04-09T11:29:12.177Z,3.35
2023-04-09T11:31:46.681Z,3.63
2023-04-09T11:34:17.877Z,3.65
2023-04-09T11:36:51.440Z,3.90
2023-04-09T11:39:24.941Z,4.00
2023-04-09T11:41:57.450Z,3.88
2023-04-09T11:44:29.014Z,4.65
2023-04-09T11:47:01.707Z,4.85
2023-04-09T11:49:33.848Z,3.97
2023-04-09T11:52:06.337Z,4.35
2023-04-09T11:54:38.469Z,4.40
2023-04-09T11:57:09.718Z,5.75
2023-04-09T11:59:41.134Z,4.63
2023-04-09T12:02:37.710Z,3.92
2023-04-09T12:05:09.314Z,3.53
2023-04-09T12:07:44.231Z,4.13
2023-04-09T12:10:22.446Z,4.38
2023-04-09T12:12:53.270Z,3.80
2023-04-09T12:15:26.802Z,10.80
2023-04-09T12:17:57.998Z,9.88
2023-04-09T12:20:41.623Z,12.93
2023-04-09T12:23:13.701Z,12.55
2023-04-09T12:25:49.696Z,9.63
2023-04-09T12:28:20.987Z,11.60
2023-04-09T12:30:54.109Z,9.02
2023-04-09T12:36:23.536Z,9.18
2023-04-09T12:38:55.115Z,11.18
2023-04-09T12:41:27.070Z,11.02
2023-04-09T12:43:58.910Z,10.00
2023-04-09T12:46:29.808Z,10.02
2023-04-09T12:49:00.933Z,9.07
2023-04-09T12:51:34.604Z,11.07
2023-04-09T12:54:07.068Z,8.68
2023-04-09T12:56:38.757Z,8.65
2023-04-09T12:59:12.342Z,11.85
2023-04-09T13:01:45.565Z,9.40
2023-04-09T13:04:17.258Z,8.60
2023-04-09T13:06:47.674Z,11.23
2023-04-09T13:09:20.095Z,9.05
2023-04-09T13:11:51.354Z,11.60
2023-04-09T13:14:23.125Z,7.72
2023-04-09T13:16:54.083Z,8.48
2023-04-09T13:19:25.618Z,10.65
2023-04-09T13:21:58.231Z,10.25
2023-04-09T13:24:28.798Z,9.38
2023-04-09T13:27:00.120Z,9.15
2023-04-09T13:29:32.374Z,9.57
2023-04-09T13:32:08.376Z,5.45
2023-04-09T13:34:38.749Z,7.15
2023-04-09T13:37:11.281Z,9.00
2023-04-09T13:39:41.302Z,10.32
2023-04-09T13:42:14.384Z,8.82
2023-04-09T13:44:47.303Z,6.65
2023-04-09T13:47:19.974Z,5.25
2023-04-09T13:49:55.995Z,6.22
2023-04-09T13:52:29.644Z,6.10
2023-04-09T13:55:04.521Z,7.45
2023-04-09T13:57:35.475Z,6.50
2023-04-09T14:00:07.182Z,8.15
2023-04-09T14:02:38.902Z,7.63
2023-04-09T14:05:10.250Z,7.75
2023-04-09T14:07:41.238Z,5.78
2023-04-09T14:10:14.200Z,7.00
2023-04-09T14:12:44.728Z,6.80
2023-04-09T14:15:16.252Z,7.38
2023-04-09T14:17:47.160Z,9.20
2023-04-09T14:20:17.780Z,8.63
2023-04-09T14:22:51.996Z,8.23
2023-04-09T14:25:23.664Z,7.13
2023-04-09T14:27:54.841Z,7.88
2023-04-09T14:30:26.582Z,7.10
2023-04-09T14:32:57.231Z,8.02
2023-04-09T14:35:28.328Z,7.93
2023-04-09T14:37:59.826Z,7.10
2023-04-09T14:40:30.800Z,7.78
2023-04-09T14:43:03.812Z,6.25
2023-04-09T14:45:35.090Z,6.93
2023-04-09T14:48:07.552Z,8.95
2023-04-09T14:50:39.578Z,8.02
2023-04-09T14:53:11.062Z,9.05
2023-04-09T14:55:41.360Z,12.23
2023-04-09T14:58:12.370Z,11.15
2023-04-09T15:00:43.416Z,12.02
2023-04-09T15:03:13.998Z,10.18
2023-04-09T15:05:45.255Z,7.30
2023-04-09T15:08:17.050Z,8.70
2023-04-09T15:10:48.159Z,10.90
2023-04-09T15:13:19.510Z,6.38
2023-04-09T15:15:56.952Z,11.25
2023-04-09T15:18:27.307Z,8.73
2023-04-09T15:20:57.825Z,8.80
2023-04-09T15:23:30.934Z,8.35
2023-04-09T15:26:01.120Z,9.75
2023-04-09T15:28:32.373Z,9.70
2023-04-09T15:32:01.306Z,8.45
2023-04-09T15:34:32.569Z,6.60
2023-04-09T15:37:03.722Z,7.85
2023-04-09T15:39:35.389Z,8.90
2023-04-09T15:42:08.014Z,9.48
2023-04-09T15:44:42.201Z,7.80
2023-04-09T15:47:14.650Z,9.23
2023-04-09T15:49:47.509Z,10.55
2023-04-09T15:52:17.922Z,7.60
2023-04-09T15:54:47.940Z,8.63
2023-04-09T15:57:19.003Z,7.57
2023-04-09T15:59:52.597Z,12.43
2023-04-09T16:02:25.814Z,10.70
2023-04-09T16:04:56.356Z,7.68
2023-04-09T16:07:27.728Z,11.98
2023-04-09T16:10:00.560Z,10.05
2023-04-09T16:12:32.726Z,9.57
2023-04-09T16:15:03.815Z,7.70
2023-04-09T16:17:39.243Z,8.82
2023-04-09T16:20:11.502Z,9.68
2023-04-09T16:22:42.661Z,7.20
2023-04-09T16:25:13.306Z,7.72
2023-04-09T16:27:45.154Z,7.85
2023-04-09T16:30:16.173Z,7.88
2023-04-09T16:32:48.007Z,8.32
2023-04-09T16:35:19.599Z,7.88
2023-04-09T16:37:50.384Z,8.23
2023-04-09T16:40:25.585Z,5.80
2023-04-09T16:42:57.539Z,9.48
2023-04-09T16:45:27.621Z,6.88
2023-04-09T16:47:58.503Z,7.63
2023-04-09T16:50:28.629Z,5.40
2023-04-09T16:53:02.202Z,5.35
2023-04-09T16:55:34.624Z,5.63
2023-04-09T16:58:05.023Z,6.00
2023-04-09T17:00:37.601Z,6.75
2023-04-09T17:03:08.840Z,8.00
2023-04-09T17:05:42.039Z,6.97
2023-04-09T17:08:12.494Z,5.78
2023-04-09T17:10:47.294Z,6.97
2023-04-09T17:13:20.312Z,6.25
2023-04-09T17:15:53.246Z,6.50
2023-04-09T17:18:24.437Z,6.68
2023-04-09T17:20:54.894Z,6.88
2023-04-09T17:23:27.106Z,6.07
2023-04-09T17:26:01.074Z,7.20
2023-04-09T17:28:32.193Z,4.65
2023-04-09T17:31:03.051Z,7.80
2023-04-09T17:33:57.941Z,4.90
2023-04-09T17:36:29.996Z,6.18
2023-04-09T17:39:00.023Z,6.53
2023-04-09T17:41:30.175Z,7.35
2023-04-09T17:44:01.686Z,6.70
2023-04-09T17:46:32.455Z,7.22
2023-04-09T17:49:02.819Z,7.35
2023-04-09T17:51:36.307Z,6.93
2023-04-09T17:54:07.578Z,6.22
2023-04-09T17:56:44.110Z,8.40
2023-04-09T17:59:16.032Z,6.18
2023-04-09T18:01:46.655Z,10.02
2023-04-09T18:04:17.566Z,8.50
2023-04-09T18:06:47.881Z,7.40
2023-04-09T18:09:18.015Z,8.27
2023-04-09T18:11:49.972Z,9.00
2023-04-09T18:14:21.222Z,8.93
2023-04-09T18:16:51.490Z,8.80
2023-04-09T18:19:21.515Z,6.18
2023-04-09T18:21:52.033Z,8.18
2023-04-09T18:24:22.365Z,6.88
2023-04-09T18:26:53.975Z,8.50
2023-04-09T18:29:25.608Z,7.47
2023-04-09T18:31:58.811Z,6.63
2023-04-09T18:34:29.337Z,7.03
2023-04-09T18:37:00.184Z,6.80
2023-04-09T18:39:32.269Z,6.50
2023-04-09T18:42:04.484Z,4.72
2023-04-09T18:44:39.482Z,5.80
2023-04-09T18:47:10.856Z,7.07
2023-04-09T18:49:42.005Z,11.57
2023-04-09T18:52:15.317Z,8.50
2023-04-09T18:54:49.136Z,6.13
2023-04-09T18:57:19.399Z,6.07
2023-04-09T18:59:49.721Z,8.48
2023-04-09T19:02:26.415Z,8.18
2023-04-09T19:05:00.028Z,8.68
2023-04-09T19:07:35.548Z,6.93
2023-04-09T19:10:05.950Z,5.65
2023-04-09T19:12:38.185Z,5.55
2023-04-09T19:15:09.984Z,8.20
2023-04-09T19:17:40.236Z,6.78
2023-04-09T19:20:11.608Z,8.60
2023-04-09T19:22:48.654Z,5.45
2023-04-09T19:25:19.785Z,5.70
2023-04-09T19:27:50.202Z,8.00
2023-04-09T19:30:20.372Z,8.40
2023-04-09T19:32:55.723Z,7.97
2023-04-09T19:35:27.662Z,6.28
2023-04-09T19:38:01.126Z,7.38
2023-04-09T19:40:33.796Z,6.55
2023-04-09T19:43:05.672Z,9.20
2023-04-09T19:45:40.272Z,6.82
2023-04-09T19:48:12.110Z,6.10
2023-04-09T19:50:46.428Z,8.20
2023-04-09T19:53:21.853Z,6.82
2023-04-09T19:55:58.432Z,7.13
2023-04-09T19:58:36.021Z,5.30
2023-04-09T20:01:17.865Z,5.65
2023-04-09T20:03:48.647Z,9.23
2023-04-09T20:06:19.635Z,8.10
2023-04-09T20:08:53.949Z,8.57
2023-04-09T20:11:26.226Z,9.73
2023-04-09T20:13:58.171Z,8.23
2023-04-09T20:16:30.072Z,10.50
2023-04-09T20:19:03.869Z,7.70
2023-04-09T20:21:34.144Z,7.65
2023-04-09T20:24:05.920Z,10.65
2023-04-09T20:26:36.465Z,8.40
2023-04-09T20:29:06.834Z,8.88
2023-04-09T20:31:40.760Z,8.80
2023-04-09T20:34:12.429Z,7.50
2023-04-09T20:36:46.429Z,6.63
2023-04-09T20:39:16.977Z,7.70
2023-04-09T20:41:48.852Z,7.95
2023-04-09T20:44:20.275Z,7.47
2023-04-09T20:53:01.147Z,8.93
2023-04-09T20:55:31.889Z,8.82
2023-04-09T20:58:03.345Z,11.00
2023-04-09T21:00:34.904Z,9.48
2023-04-09T21:03:05.437Z,8.05
2023-04-09T21:05:38.309Z,9.25
2023-04-09T21:08:16.786Z,8.20
2023-04-09T21:10:47.110Z,9.38
2023-04-09T21:13:20.425Z,8.50
2023-04-09T21:15:53.184Z,8.18
2023-04-09T21:18:25.252Z,8.38
2023-04-09T21:20:57.112Z,9.98
2023-04-09T21:23:28.496Z,8.43
2023-04-09T21:26:00.765Z,8.15
2023-04-09T21:28:35.161Z,9.23
2023-04-09T21:31:09.066Z,6.22
2023-04-09T21:33:40.934Z,7.38
2023-04-09T21:36:15.217Z,10.02
2023-04-09T21:38:48.438Z,8.63
2023-04-09T21:41:29.227Z,9.05
2023-04-09T21:44:00.277Z,7.60
2023-04-09T21:46:32.551Z,8.68
2023-04-09T21:49:04.283Z,8.75
2023-04-09T21:51:35.821Z,5.20
2023-04-09T21:54:11.676Z,7.35
2023-04-09T21:56:42.097Z,7.63
2023-04-09T21:59:12.802Z,8.57
2023-04-09T22:01:47.555Z,11.52
2023-04-09T22:04:23.366Z,9.23
2023-04-09T22:06:57.651Z,8.10
2023-04-09T22:09:29.973Z,9.23
2023-04-09T22:12:02.326Z,7.45
2023-04-09T22:14:34.576Z,9.65
2023-04-09T22:17:08.110Z,6.25
2023-04-09T22:19:43.162Z,8.23
2023-04-09T22:22:17.995Z,6.30
2023-04-09T22:24:54.166Z,6.72
2023-04-09T22:27:25.958Z,8.32
2023-04-09T22:30:02.140Z,7.68
2023-04-09T22:32:37.428Z,5.80
2023-04-09T22:35:09.406Z,6.25
2023-04-09T22:37:40.592Z,5.40
2023-04-09T22:40:18.551Z,3.60
2023-04-09T22:42:53.434Z,3.72
2023-04-09T22:45:23.910Z,2.63
2023-04-09T22:47:56.568Z,3.60
2023-04-09T22:50:33.689Z,2.95
2023-04-09T22:53:08.394Z,2.80
2023-04-09T22:55:40.595Z,2.33
2023-04-09T22:58:12.140Z,2.08
2023-04-09T23:00:44.294Z,1.90
2023-04-09T23:03:19.944Z,2.20
2023-04-09T23:05:51.993Z,2.28
2023-04-09T23:08:26.118Z,2.55
2023-04-09T23:10:59.302Z,1.88
2023-04-09T23:13:32.912Z,2.10
2023-04-09T23:16:09.184Z,2.60
2023-04-09T23:18:40.911Z,2.50
2023-04-09T23:21:21.043Z,2.47
2023-04-09T23:23:52.869Z,2.25
2023-04-09T23:26:25.221Z,1.83
2023-04-09T23:29:00.344Z,2.10
2023-04-09T23:31:35.606Z,2.40
2023-04-09T23:34:08.021Z,2.72
2023-04-09T23:36:39.544Z,2.50
2023-04-09T23:39:11.198Z,2.75
2023-04-09T23:41:45.657Z,2.50
2023-04-09T23:44:18.851Z,3.40
2023-04-09T23:46:52.042Z,2.95
2023-04-09T23:49:24.996Z,2.60
2023-04-09T23:51:57.952Z,2.60
2023-04-09T23:54:34.825Z,2.88
2023-04-09T23:57:09.786Z,2.97
2023-04-09T23:59:40.543Z,2.40
